createdAt,value
2018-07-08T00:00:35.293Z,17.19
2018-07-08T00:03:04.368Z,17.06
2018-07-08T00:05:33.472Z,17.11
2018-07-08T00:08:02.584Z,17.09
2018-07-08T00:10:31.704Z,17.17
2018-07-08T00:13:00.775Z,17.17
2018-07-08T00:15:29.860Z,17.12
2018-07-08T00:17:58.936Z,17.04
2018-07-08T00:20:28.036Z,16.88
2018-07-08T00:22:57.128Z,16.91
2018-07-08T00:25:26.288Z,16.95
2018-07-08T00:27:55.384Z,16.97
2018-07-08T00:30:24.472Z,16.99
2018-07-08T00:32:53.560Z,16.95
2018-07-08T00:35:22.660Z,16.92
2018-07-08T00:37:51.828Z,16.88
2018-07-08T00:40:20.922Z,16.88
2018-07-08T00:42:49.976Z,16.84
2018-07-08T00:45:19.064Z,16.76
2018-07-08T00:47:48.136Z,16.58
2018-07-08T00:50:17.236Z,16.57
2018-07-08T00:52:46.631Z,16.65
2018-07-08T00:55:15.724Z,16.64
2018-07-08T00:57:44.801Z,16.65
2018-07-08T01:00:25.149Z,16.58
2018-07-08T01:02:54.232Z,16.49
2018-07-08T01:05:23.335Z,16.50
2018-07-08T01:07:52.407Z,16.51
2018-07-08T01:10:21.776Z,16.48
2018-07-08T01:12:50.848Z,16.37
2018-07-08T01:15:20.024Z,16.27
2018-07-08T01:17:49.093Z,16.26
2018-07-08T01:20:18.172Z,16.27
2018-07-08T01:22:47.287Z,16.20
2018-07-08T01:25:17.336Z,16.24
2018-07-08T01:27:46.428Z,16.32
2018-07-08T01:30:15.508Z,16.33
2018-07-08T01:32:44.612Z,16.35
2018-07-08T01:35:13.688Z,16.28
2018-07-08T01:37:42.785Z,16.27
2018-07-08T01:40:11.871Z,16.29
2018-07-08T01:42:40.952Z,16.25
2018-07-08T01:45:10.024Z,16.29
2018-07-08T01:47:39.120Z,16.27
2018-07-08T01:50:08.190Z,16.17
2018-07-08T01:52:37.299Z,16.05
2018-07-08T01:55:06.386Z,15.95
2018-07-08T01:57:35.488Z,15.86
2018-07-08T02:00:05.209Z,15.80
2018-07-08T02:02:34.308Z,15.87
2018-07-08T02:05:03.396Z,15.86
2018-07-08T02:07:32.492Z,15.77
2018-07-08T02:10:01.561Z,15.73
2018-07-08T02:12:30.652Z,15.67
2018-07-08T02:14:59.716Z,15.66
2018-07-08T02:17:28.800Z,15.60
2018-07-08T02:19:57.893Z,15.64
2018-07-08T02:22:26.984Z,15.62
2018-07-08T02:24:56.661Z,15.67
2018-07-08T02:27:25.760Z,15.68
2018-07-08T02:29:54.840Z,15.52
2018-07-08T02:32:23.980Z,15.30
2018-07-08T02:34:53.057Z,15.18
2018-07-08T02:37:22.172Z,15.16
2018-07-08T02:39:51.316Z,15.09
2018-07-08T02:42:20.384Z,15.10
2018-07-08T02:44:49.452Z,15.11
2018-07-08T02:47:18.564Z,15.03
2018-07-08T02:49:47.900Z,14.84
2018-07-08T02:52:17.819Z,14.77
2018-07-08T02:54:46.909Z,14.85
2018-07-08T02:57:16.320Z,14.81
2018-07-08T02:59:45.687Z,14.78
2018-07-08T03:02:14.772Z,14.89
2018-07-08T03:04:43.884Z,14.99
2018-07-08T03:07:12.953Z,15.04
2018-07-08T03:09:42.048Z,15.00
2018-07-08T03:12:11.128Z,15.01
2018-07-08T03:14:40.231Z,15.02
2018-07-08T03:17:09.313Z,14.99
2018-07-08T03:19:38.421Z,14.90
2018-07-08T03:22:07.493Z,14.84
2018-07-08T03:24:36.584Z,14.79
2018-07-08T03:27:05.668Z,14.79
2018-07-08T03:29:34.766Z,14.76
2018-07-08T03:32:03.853Z,14.78
2018-07-08T03:34:32.964Z,14.81
2018-07-08T03:37:02.049Z,14.80
2018-07-08T03:39:31.157Z,14.83
2018-07-08T03:42:00.239Z,14.87
2018-07-08T03:44:29.335Z,14.91
2018-07-08T03:46:58.411Z,14.96
2018-07-08T03:49:27.516Z,14.98
2018-07-08T03:51:56.625Z,14.99
2018-07-08T03:54:32.984Z,15.01
2018-07-08T03:57:02.056Z,15.02
2018-07-08T03:59:31.155Z,14.98
2018-07-08T04:02:00.228Z,14.92
2018-07-08T04:04:29.323Z,14.90
2018-07-08T04:06:58.403Z,15.02
2018-07-08T04:09:27.500Z,15.09
2018-07-08T04:11:56.582Z,15.19
2018-07-08T04:14:25.684Z,15.25
2018-07-08T04:16:54.748Z,15.35
2018-07-08T04:19:23.848Z,15.43
2018-07-08T04:21:52.932Z,15.37
2018-07-08T04:24:22.036Z,15.28
2018-07-08T04:26:51.193Z,15.35
2018-07-08T04:29:20.263Z,15.42
2018-07-08T04:31:49.360Z,15.48
2018-07-08T04:34:18.432Z,15.51
2018-07-08T04:36:47.523Z,15.63
2018-07-08T04:39:16.659Z,15.72
2018-07-08T04:41:46.116Z,15.82
2018-07-08T04:44:15.208Z,15.91
2018-07-08T04:46:44.308Z,15.95
2018-07-08T04:49:13.423Z,15.95
2018-07-08T04:51:42.472Z,16.04
2018-07-08T04:54:11.579Z,16.10
2018-07-08T04:56:40.673Z,16.08
2018-07-08T04:59:09.750Z,16.15
2018-07-08T05:01:38.864Z,16.15
2018-07-08T05:04:07.940Z,16.15
2018-07-08T05:06:37.062Z,16.10
2018-07-08T05:09:06.227Z,16.09
2018-07-08T05:11:35.340Z,16.15
2018-07-08T05:14:04.419Z,16.26
2018-07-08T05:16:33.524Z,16.32
2018-07-08T05:19:02.601Z,16.28
2018-07-08T05:21:31.728Z,16.38
2018-07-08T05:24:00.812Z,16.41
2018-07-08T05:26:29.912Z,16.46
2018-07-08T05:28:59.285Z,16.52
2018-07-08T05:31:28.401Z,16.57
2018-07-08T05:33:57.480Z,16.55
2018-07-08T05:36:26.573Z,16.66
2018-07-08T05:38:55.652Z,16.76
2018-07-08T05:41:24.749Z,16.73
2018-07-08T05:43:53.915Z,16.83
2018-07-08T05:46:23.024Z,16.82
2018-07-08T05:48:52.092Z,16.89
2018-07-08T05:51:21.195Z,16.96
2018-07-08T05:53:50.295Z,16.98
2018-07-08T05:56:19.400Z,16.97
2018-07-08T05:58:48.484Z,17.06
2018-07-08T06:01:17.600Z,17.08
2018-07-08T06:03:46.672Z,17.02
2018-07-08T06:06:15.784Z,17.15
2018-07-08T06:08:44.860Z,17.31
2018-07-08T06:11:13.979Z,17.39
2018-07-08T06:13:43.061Z,17.57
2018-07-08T06:16:12.141Z,17.60
2018-07-08T06:18:41.387Z,17.73
2018-07-08T06:21:10.448Z,17.81
2018-07-08T06:23:39.551Z,17.89
2018-07-08T06:26:08.636Z,17.96
2018-07-08T06:28:37.740Z,18.04
2018-07-08T06:31:06.818Z,18.12
2018-07-08T06:33:35.923Z,18.16
2018-07-08T06:36:05.086Z,18.50
2018-07-08T06:38:34.200Z,18.73
2018-07-08T06:41:03.272Z,18.80
2018-07-08T06:43:32.376Z,18.76
2018-07-08T06:46:01.452Z,18.78
2018-07-08T06:48:30.552Z,18.96
2018-07-08T06:50:59.624Z,18.95
2018-07-08T06:53:28.832Z,18.91
2018-07-08T06:55:57.999Z,18.96
2018-07-08T06:58:27.096Z,18.96
2018-07-08T07:00:56.183Z,18.93
2018-07-08T07:03:25.276Z,19.01
2018-07-08T07:05:54.975Z,19.02
2018-07-08T07:08:24.080Z,19.11
2018-07-08T07:10:53.168Z,19.14
2018-07-08T07:13:22.269Z,19.20
2018-07-08T07:15:51.340Z,19.32
2018-07-08T07:18:20.439Z,19.33
2018-07-08T07:20:49.528Z,19.20
2018-07-08T07:23:18.636Z,19.30
2018-07-08T07:25:47.716Z,19.64
2018-07-08T07:28:16.801Z,19.52
2018-07-08T07:30:45.909Z,19.22
2018-07-08T07:33:14.977Z,18.99
2018-07-08T07:35:44.081Z,19.32
2018-07-08T07:38:13.189Z,19.74
2018-07-08T07:40:42.317Z,20.07
2018-07-08T07:43:11.440Z,20.01
2018-07-08T07:45:40.564Z,20.20
2018-07-08T07:48:09.648Z,20.00
2018-07-08T07:50:38.772Z,20.24
2018-07-08T07:53:07.876Z,20.07
2018-07-08T07:55:36.992Z,19.77
2018-07-08T07:58:06.080Z,20.04
2018-07-08T08:00:35.198Z,20.44
2018-07-08T08:03:04.304Z,20.64
2018-07-08T08:05:33.405Z,20.94
2018-07-08T08:08:02.489Z,20.93
2018-07-08T08:10:31.606Z,20.82
2018-07-08T08:13:00.709Z,21.13
2018-07-08T08:15:29.797Z,21.45
2018-07-08T08:17:59.177Z,21.18
2018-07-08T08:20:28.278Z,21.20
2018-07-08T08:22:57.362Z,21.27
2018-07-08T08:25:26.508Z,21.42
2018-07-08T08:27:55.608Z,21.62
2018-07-08T08:30:24.732Z,21.90
2018-07-08T08:32:53.813Z,21.88
2018-07-08T08:35:22.912Z,22.07
2018-07-08T08:37:54.068Z,22.23
2018-07-08T08:40:24.411Z,22.19
2018-07-08T08:42:53.892Z,22.22
2018-07-08T08:45:24.388Z,22.04
2018-07-08T08:47:53.472Z,22.13
2018-07-08T08:50:22.574Z,22.16
2018-07-08T08:52:51.672Z,22.11
2018-07-08T08:55:20.796Z,22.07
2018-07-08T08:57:49.871Z,22.11
2018-07-08T09:00:19.849Z,22.07
2018-07-08T09:02:48.912Z,22.27
2018-07-08T09:05:17.984Z,22.38
2018-07-08T09:07:47.092Z,22.29
2018-07-08T09:10:16.172Z,22.29
2018-07-08T09:12:45.271Z,22.11
2018-07-08T09:15:14.348Z,22.19
2018-07-08T09:17:43.462Z,22.21
2018-07-08T09:20:12.534Z,22.07
2018-07-08T09:22:41.635Z,22.30
2018-07-08T09:25:10.729Z,22.37
2018-07-08T09:27:39.829Z,22.26
2018-07-08T09:30:08.900Z,22.21
2018-07-08T09:32:38.120Z,22.12
2018-07-08T09:35:07.196Z,22.28
2018-07-08T09:37:36.305Z,22.58
2018-07-08T09:40:05.396Z,22.54
2018-07-08T09:42:34.502Z,22.60
2018-07-08T09:45:03.587Z,22.81
2018-07-08T09:47:32.688Z,23.09
2018-07-08T09:50:01.772Z,22.96
2018-07-08T09:52:32.040Z,23.03
2018-07-08T09:55:01.717Z,22.96
2018-07-08T09:57:31.232Z,23.19
2018-07-08T10:00:01.453Z,23.41
2018-07-08T10:02:31.479Z,23.44
2018-07-08T10:05:00.722Z,23.48
2018-07-08T10:07:29.776Z,23.71
2018-07-08T10:09:58.856Z,23.64
2018-07-08T10:12:27.957Z,23.60
2018-07-08T10:14:57.029Z,23.54
2018-07-08T10:17:26.132Z,23.40
2018-07-08T10:19:55.304Z,23.29
2018-07-08T10:22:24.313Z,23.40
2018-07-08T10:24:53.380Z,23.70
2018-07-08T10:27:32.598Z,23.88
2018-07-08T10:30:01.672Z,23.98
2018-07-08T10:32:30.777Z,24.04
2018-07-08T10:34:59.853Z,24.10
2018-07-08T10:37:28.973Z,24.05
2018-07-08T10:39:58.060Z,24.11
2018-07-08T10:42:27.160Z,23.95
2018-07-08T10:44:56.276Z,23.89
2018-07-08T10:47:25.353Z,23.90
2018-07-08T10:49:54.483Z,23.96
2018-07-08T10:52:23.625Z,23.86
2018-07-08T10:54:52.772Z,23.92
2018-07-08T10:57:21.840Z,23.93
2018-07-08T10:59:50.940Z,24.02
2018-07-08T11:02:20.032Z,23.92
2018-07-08T11:04:49.128Z,23.98
2018-07-08T11:07:18.204Z,24.14
2018-07-08T11:09:47.311Z,24.17
2018-07-08T11:12:16.384Z,24.13
2018-07-08T11:14:45.485Z,24.15
2018-07-08T11:17:19.616Z,24.49
2018-07-08T11:19:49.371Z,24.55
2018-07-08T11:22:18.483Z,24.60
2018-07-08T11:24:48.626Z,24.75
2018-07-08T11:27:17.784Z,24.70
2018-07-08T11:29:46.900Z,24.76
2018-07-08T11:32:16.044Z,24.87
2018-07-08T11:34:46.545Z,25.01
2018-07-08T11:37:16.773Z,25.05
2018-07-08T11:39:46.312Z,25.04
2018-07-08T11:42:15.388Z,24.98
2018-07-08T11:44:46.632Z,24.80
2018-07-08T11:47:15.724Z,24.83
2018-07-08T11:49:44.930Z,24.87
2018-07-08T11:52:14.017Z,25.03
2018-07-08T11:54:43.196Z,25.34
2018-07-08T11:57:12.276Z,25.51
2018-07-08T11:59:41.400Z,25.54
2018-07-08T12:02:10.505Z,25.54
2018-07-08T12:04:39.588Z,25.42
2018-07-08T12:07:08.690Z,25.19
2018-07-08T12:09:37.808Z,25.19
2018-07-08T12:12:06.907Z,25.57
2018-07-08T12:14:37.007Z,25.74
2018-07-08T12:17:06.308Z,25.64
2018-07-08T12:19:35.377Z,26.37
2018-07-08T12:22:04.504Z,25.94
2018-07-08T12:24:33.594Z,25.69
2018-07-08T12:27:02.697Z,25.78
2018-07-08T12:29:31.785Z,25.67
2018-07-08T12:32:00.927Z,25.59
2018-07-08T12:34:30.018Z,25.64
2018-07-08T12:36:59.125Z,25.69
2018-07-08T12:39:28.204Z,25.65
2018-07-08T12:41:57.313Z,25.69
2018-07-08T12:44:26.411Z,25.99
2018-07-08T12:46:55.496Z,26.13
2018-07-08T12:49:24.587Z,26.08
2018-07-08T12:51:53.679Z,26.18
2018-07-08T12:54:22.792Z,26.10
2018-07-08T12:56:51.936Z,26.13
2018-07-08T12:59:21.048Z,26.05
2018-07-08T13:01:50.156Z,25.97
2018-07-08T13:04:19.244Z,26.17
2018-07-08T13:06:48.734Z,26.23
2018-07-08T13:09:17.833Z,26.17
2018-07-08T13:11:46.963Z,25.98
2018-07-08T13:14:16.060Z,26.00
2018-07-08T13:16:45.167Z,25.95
2018-07-08T13:19:14.252Z,25.96
2018-07-08T13:21:43.354Z,25.87
2018-07-08T13:24:12.452Z,26.00
2018-07-08T13:26:41.566Z,25.99
2018-07-08T13:29:10.684Z,26.25
2018-07-08T13:31:39.785Z,26.19
2018-07-08T13:34:08.869Z,26.05
2018-07-08T13:36:37.976Z,26.02
2018-07-08T13:39:08.025Z,26.06
2018-07-08T13:41:37.149Z,26.25
2018-07-08T13:44:06.536Z,26.38
2018-07-08T13:46:35.652Z,26.46
2018-07-08T13:49:04.739Z,26.53
2018-07-08T13:51:33.850Z,26.65
2018-07-08T13:54:02.973Z,26.54
2018-07-08T13:56:32.085Z,26.54
2018-07-08T13:59:01.198Z,26.71
2018-07-08T14:01:30.288Z,26.65
2018-07-08T14:03:59.368Z,26.79
2018-07-08T14:06:28.460Z,26.85
2018-07-08T14:08:57.581Z,26.95
2018-07-08T14:11:26.664Z,26.97
2018-07-08T14:13:55.920Z,26.70
2018-07-08T14:16:25.028Z,26.75
2018-07-08T14:18:54.128Z,26.72
2018-07-08T14:21:23.204Z,26.69
2018-07-08T14:23:52.693Z,26.70
2018-07-08T14:26:21.781Z,26.77
2018-07-08T14:28:50.953Z,27.01
2018-07-08T14:31:20.118Z,27.23
2018-07-08T14:33:49.456Z,27.37
2018-07-08T14:36:18.716Z,27.54
2018-07-08T14:38:47.820Z,27.35
2018-07-08T14:41:16.900Z,27.17
2018-07-08T14:43:45.996Z,27.23
2018-07-08T14:46:15.943Z,27.22
2018-07-08T14:48:45.535Z,27.12
2018-07-08T14:51:14.600Z,27.08
2018-07-08T14:53:43.708Z,27.08
2018-07-08T14:56:12.782Z,27.09
2018-07-08T14:58:41.873Z,26.99
2018-07-08T15:01:10.948Z,26.91
2018-07-08T15:03:40.060Z,26.95
2018-07-08T15:06:09.582Z,26.80
2018-07-08T15:08:38.692Z,26.79
2018-07-08T15:11:07.789Z,26.86
2018-07-08T15:13:36.889Z,26.81
2018-07-08T15:16:06.067Z,27.00
2018-07-08T15:18:35.089Z,26.91
2018-07-08T15:21:04.211Z,26.73
2018-07-08T15:23:33.281Z,26.74
2018-07-08T15:26:02.376Z,26.99
2018-07-08T15:28:31.557Z,26.91
2018-07-08T15:31:00.573Z,26.76
2018-07-08T15:33:29.775Z,26.76
2018-07-08T15:35:58.848Z,26.82
2018-07-08T15:38:27.944Z,26.90
2018-07-08T15:40:57.068Z,26.78
2018-07-08T15:43:26.176Z,26.86
2018-07-08T15:45:55.266Z,26.80
2018-07-08T15:48:24.385Z,26.82
2018-07-08T15:50:53.458Z,26.86
2018-07-08T15:53:22.592Z,26.83
2018-07-08T15:55:51.679Z,26.86
2018-07-08T15:58:20.761Z,26.65
2018-07-08T16:00:49.873Z,26.65
2018-07-08T16:03:18.973Z,27.37
2018-07-08T16:05:48.092Z,26.81
2018-07-08T16:08:17.745Z,26.73
2018-07-08T16:10:46.840Z,26.71
2018-07-08T16:13:15.927Z,26.71
2018-07-08T16:15:45.042Z,26.57
2018-07-08T16:18:14.894Z,26.47
2018-07-08T16:20:43.940Z,26.87
2018-07-08T16:23:13.017Z,26.38
2018-07-08T16:25:42.130Z,26.16
2018-07-08T16:28:11.661Z,26.14
2018-07-08T16:30:40.791Z,26.20
2018-07-08T16:33:09.871Z,26.17
2018-07-08T16:35:47.488Z,26.22
2018-07-08T16:38:16.580Z,26.18
2018-07-08T16:40:45.693Z,26.25
2018-07-08T16:43:14.776Z,26.28
2018-07-08T16:45:43.905Z,26.19
2018-07-08T16:48:13.216Z,26.19
2018-07-08T16:50:42.322Z,26.16
2018-07-08T16:53:11.428Z,26.08
2018-07-08T16:55:40.531Z,26.03
2018-07-08T16:58:09.612Z,26.02
2018-07-08T17:00:38.716Z,25.94
2018-07-08T17:03:07.788Z,25.98
2018-07-08T17:05:36.884Z,26.07
2018-07-08T17:08:05.973Z,26.00
2018-07-08T17:10:35.076Z,25.75
2018-07-08T17:13:04.192Z,25.72
2018-07-08T17:15:33.305Z,25.67
2018-07-08T17:18:02.400Z,25.62
2018-07-08T17:20:31.496Z,25.51
2018-07-08T17:23:00.592Z,25.42
2018-07-08T17:25:29.704Z,25.38
2018-07-08T17:27:58.779Z,25.32
2018-07-08T17:30:27.887Z,25.31
2018-07-08T17:32:56.967Z,25.32
2018-07-08T17:35:26.099Z,25.39
2018-07-08T17:37:55.352Z,25.41
2018-07-08T17:40:24.596Z,25.33
2018-07-08T17:42:54.940Z,25.21
2018-07-08T17:45:24.089Z,25.11
2018-07-08T17:47:53.280Z,25.05
2018-07-08T17:50:22.368Z,24.96
2018-07-08T17:52:51.806Z,24.97
2018-07-08T17:55:20.938Z,24.91
2018-07-08T17:57:50.051Z,24.76
2018-07-08T18:00:19.177Z,24.64
2018-07-08T18:02:48.272Z,24.55
2018-07-08T18:05:17.364Z,24.51
2018-07-08T18:07:46.455Z,24.51
2018-07-08T18:10:16.152Z,24.30
2018-07-08T18:12:45.923Z,24.26
2018-07-08T18:15:15.620Z,24.21
2018-07-08T18:17:45.465Z,24.17
2018-07-08T18:20:14.592Z,24.17
2018-07-08T18:22:43.687Z,24.17
2018-07-08T18:25:12.995Z,24.11
2018-07-08T18:27:42.080Z,24.12
2018-07-08T18:30:11.180Z,24.02
2018-07-08T18:32:40.480Z,24.04
2018-07-08T18:35:09.638Z,23.98
2018-07-08T18:37:38.801Z,23.84
2018-07-08T18:40:07.853Z,23.82
2018-07-08T18:42:37.156Z,23.75
2018-07-08T18:45:07.329Z,23.69
2018-07-08T18:47:36.626Z,23.63
2018-07-08T18:50:06.208Z,23.56
2018-07-08T18:52:35.378Z,23.54
2018-07-08T18:55:04.496Z,23.52
2018-07-08T18:57:33.601Z,23.39
2018-07-08T19:00:03.228Z,23.30
2018-07-08T19:02:32.372Z,23.33
2018-07-08T19:05:01.451Z,23.23
2018-07-08T19:07:30.552Z,23.12
2018-07-08T19:09:59.653Z,23.05
2018-07-08T19:12:28.791Z,23.01
2018-07-08T19:14:59.149Z,22.94
2018-07-08T19:17:28.938Z,22.83
2018-07-08T19:19:58.079Z,22.79
2018-07-08T19:22:27.160Z,22.74
2018-07-08T19:24:57.072Z,22.67
2018-07-08T19:27:26.515Z,22.64
2018-07-08T19:29:55.641Z,22.58
2018-07-08T19:32:25.251Z,22.49
2018-07-08T19:34:54.344Z,22.43
2018-07-08T19:37:23.474Z,22.38
2018-07-08T19:39:52.629Z,22.27
2018-07-08T19:42:21.772Z,22.28
2018-07-08T19:44:50.883Z,22.21
2018-07-08T19:47:20.053Z,22.17
2018-07-08T19:49:49.365Z,22.04
2018-07-08T19:52:18.473Z,22.05
2018-07-08T19:54:47.625Z,21.90
2018-07-08T19:57:18.302Z,21.82
2018-07-08T19:59:48.457Z,21.80
2018-07-08T20:02:18.100Z,21.64
2018-07-08T20:04:51.797Z,21.55
2018-07-08T20:07:20.986Z,21.45
2018-07-08T20:09:50.119Z,21.34
2018-07-08T20:12:19.204Z,21.25
2018-07-08T20:14:48.300Z,21.17
2018-07-08T20:17:17.389Z,21.17
2018-07-08T20:19:46.493Z,21.22
2018-07-08T20:22:15.580Z,21.31
2018-07-08T20:24:44.696Z,21.38
2018-07-08T20:27:14.539Z,21.38
2018-07-08T20:29:44.109Z,21.36
2018-07-08T20:32:13.196Z,21.30
2018-07-08T20:34:42.892Z,21.26
2018-07-08T20:37:11.981Z,21.23
2018-07-08T20:39:41.612Z,21.20
2018-07-08T20:42:11.553Z,21.28
2018-07-08T20:44:41.003Z,21.20
2018-07-08T20:47:10.278Z,21.03
2018-07-08T20:49:39.384Z,20.91
2018-07-08T20:52:08.505Z,20.84
2018-07-08T20:54:37.615Z,20.87
2018-07-08T20:57:06.696Z,20.83
2018-07-08T20:59:35.805Z,20.81
2018-07-08T21:02:04.885Z,20.74
2018-07-08T21:04:33.989Z,20.74
2018-07-08T21:07:03.069Z,20.61
2018-07-08T21:09:32.616Z,20.49
2018-07-08T21:12:01.705Z,20.40
2018-07-08T21:14:30.825Z,20.25
2018-07-08T21:16:59.897Z,20.20
2018-07-08T21:19:28.995Z,20.20
2018-07-08T21:21:58.083Z,20.19
2018-07-08T21:24:27.272Z,20.17
2018-07-08T21:26:57.037Z,20.25
2018-07-08T21:29:26.140Z,20.23
2018-07-08T21:31:55.241Z,20.15
2018-07-08T21:34:24.356Z,20.05
2018-07-08T21:36:53.475Z,19.91
2018-07-08T21:39:22.519Z,19.84
2018-07-08T21:41:51.637Z,19.71
2018-07-08T21:44:20.707Z,19.67
2018-07-08T21:46:49.820Z,19.57
2018-07-08T21:49:18.885Z,19.51
2018-07-08T21:51:47.989Z,19.46
2018-07-08T21:54:17.095Z,19.46
2018-07-08T21:56:46.200Z,19.50
2018-07-08T21:59:15.252Z,19.47
2018-07-08T22:02:02.120Z,19.39
2018-07-08T22:04:31.238Z,19.51
2018-07-08T22:07:05.738Z,19.39
2018-07-08T22:09:35.172Z,19.50
2018-07-08T22:12:04.360Z,19.46
2018-07-08T22:14:33.432Z,19.37
2018-07-08T22:17:02.532Z,19.32
2018-07-08T22:19:31.608Z,19.27
2018-07-08T22:22:00.956Z,19.10
2018-07-08T22:24:30.033Z,19.04
2018-07-08T22:26:59.132Z,19.06
2018-07-08T22:29:28.208Z,19.14
2018-07-08T22:31:57.303Z,19.09
2018-07-08T22:34:26.377Z,19.12
2018-07-08T22:36:55.483Z,19.16
2018-07-08T22:39:24.626Z,19.19
2018-07-08T22:41:53.663Z,19.08
2018-07-08T22:44:22.744Z,18.99
2018-07-08T22:46:51.844Z,18.94
2018-07-08T22:49:20.921Z,18.98
2018-07-08T22:51:50.025Z,19.02
2018-07-08T22:54:19.120Z,19.03
2018-07-08T22:56:48.220Z,19.07
2018-07-08T22:59:17.292Z,19.06
2018-07-08T23:01:57.889Z,19.03
2018-07-08T23:04:26.983Z,19.01
2018-07-08T23:06:56.091Z,19.05
2018-07-08T23:09:25.173Z,19.05
2018-07-08T23:11:54.280Z,19.02
2018-07-08T23:14:23.368Z,19.01
2018-07-08T23:16:52.469Z,18.98
2018-07-08T23:19:21.544Z,18.95
2018-07-08T23:21:50.643Z,18.97
2018-07-08T23:24:19.708Z,18.91
2018-07-08T23:26:48.804Z,18.85
2018-07-08T23:29:17.873Z,18.85
2018-07-08T23:31:46.978Z,18.79
2018-07-08T23:34:16.033Z,18.75
2018-07-08T23:36:45.136Z,18.74
2018-07-08T23:39:14.196Z,18.71
2018-07-08T23:41:43.263Z,18.58
2018-07-08T23:44:12.357Z,18.49
2018-07-08T23:46:41.428Z,18.41
2018-07-08T23:49:10.533Z,18.32
2018-07-08T23:51:39.588Z,18.16
2018-07-08T23:54:08.704Z,18.12
2018-07-08T23:56:37.764Z,18.14
2018-07-08T23:59:06.860Z,18.19
